createdAt,value
2018-01-10T00:00:19.695Z,999.9
2018-01-10T00:01:21.060Z,999.9
2018-01-10T00:02:22.421Z,999.9
2018-01-10T00:03:23.785Z,999.9
2018-01-10T00:04:25.142Z,999.9
2018-01-10T00:05:26.496Z,999.9
2018-01-10T00:06:27.874Z,1000.0
2018-01-10T00:07:29.235Z,999.9
2018-01-10T00:08:30.594Z,999.9
2018-01-10T00:09:31.951Z,999.9
2018-01-10T00:10:33.306Z,1000.0
2018-01-10T00:11:34.668Z,1000.0
2018-01-10T00:12:36.028Z,999.9
2018-01-10T00:13:37.393Z,1000.1
2018-01-10T00:14:38.754Z,1000.0
2018-01-10T00:15:40.143Z,1000.0
2018-01-10T00:16:41.497Z,1000.1
2018-01-10T00:17:42.857Z,1000.1
2018-01-10T00:18:44.250Z,1000.1
2018-01-10T00:19:45.610Z,1000.0
2018-01-10T00:20:46.968Z,1000.0
2018-01-10T00:21:48.328Z,1000.1
2018-01-10T00:22:49.684Z,1000.1
2018-01-10T00:23:51.034Z,1000.1
2018-01-10T00:24:52.395Z,1000.1
2018-01-10T00:25:53.753Z,1000.1
2018-01-10T00:26:55.114Z,1000.0
2018-01-10T00:27:56.482Z,1000.1
2018-01-10T00:28:57.851Z,1000.1
2018-01-10T00:29:59.208Z,1000.1
2018-01-10T00:31:00.581Z,1000.1
2018-01-10T00:32:01.936Z,1000.1
2018-01-10T00:33:03.297Z,1000.1
2018-01-10T00:34:04.654Z,1000.1
2018-01-10T00:35:06.017Z,1000.1
2018-01-10T00:36:07.388Z,1000.2
2018-01-10T00:37:08.740Z,1000.1
2018-01-10T00:38:10.117Z,1000.2
2018-01-10T00:39:11.470Z,1000.2
2018-01-10T00:40:12.830Z,1000.2
2018-01-10T00:41:14.193Z,1000.2
2018-01-10T00:42:15.546Z,1000.2
2018-01-10T00:43:16.920Z,1000.2
2018-01-10T00:44:18.295Z,1000.2
2018-01-10T00:45:19.647Z,1000.3
2018-01-10T00:46:21.004Z,1000.2
2018-01-10T00:47:22.384Z,1000.2
2018-01-10T00:48:23.744Z,1000.2
2018-01-10T00:49:25.119Z,1000.2
2018-01-10T00:50:26.478Z,1000.1
2018-01-10T00:51:27.846Z,1000.2
2018-01-10T00:52:29.215Z,1000.2
2018-01-10T00:53:30.572Z,1000.2
2018-01-10T00:54:31.940Z,1000.2
2018-01-10T00:55:33.302Z,1000.2
2018-01-10T00:56:34.662Z,1000.1
2018-01-10T00:57:36.016Z,1000.1
2018-01-10T00:58:37.385Z,1000.1
2018-01-10T00:59:38.733Z,1000.2
2018-01-10T01:00:40.094Z,1000.1
2018-01-10T01:01:41.448Z,1000.1
2018-01-10T01:02:42.807Z,1000.1
2018-01-10T01:03:44.165Z,1000.2
2018-01-10T01:04:45.521Z,1000.2
2018-01-10T01:05:46.892Z,1000.2
2018-01-10T01:06:48.306Z,1000.2
2018-01-10T01:07:49.616Z,1000.2
2018-01-10T01:08:50.968Z,1000.2
2018-01-10T01:09:52.329Z,1000.2
2018-01-10T01:10:53.691Z,1000.2
2018-01-10T01:11:55.050Z,1000.2
2018-01-10T01:12:56.425Z,1000.2
2018-01-10T01:13:57.790Z,1000.2
2018-01-10T01:14:59.152Z,1000.3
2018-01-10T01:16:00.514Z,1000.2
2018-01-10T01:17:01.874Z,1000.3
2018-01-10T01:18:03.235Z,1000.2
2018-01-10T01:19:04.593Z,1000.3
2018-01-10T01:20:05.947Z,1000.3
2018-01-10T01:21:07.306Z,1000.3
2018-01-10T01:22:08.673Z,1000.3
2018-01-10T01:23:10.034Z,1000.3
2018-01-10T01:24:11.398Z,1000.3
2018-01-10T01:25:12.763Z,1000.3
2018-01-10T01:26:14.124Z,1000.3
2018-01-10T01:27:15.487Z,1000.3
2018-01-10T01:28:16.848Z,1000.3
2018-01-10T01:29:18.214Z,1000.3
2018-01-10T01:30:19.575Z,1000.3
2018-01-10T01:31:20.933Z,1000.4
2018-01-10T01:32:22.295Z,1000.3
2018-01-10T01:33:23.662Z,1000.4
2018-01-10T01:34:25.020Z,1000.3
2018-01-10T01:35:26.371Z,1000.3
2018-01-10T01:36:27.736Z,1000.3
2018-01-10T01:37:29.090Z,1000.3
2018-01-10T01:38:30.458Z,1000.3
2018-01-10T01:39:31.812Z,1000.3
2018-01-10T01:40:33.165Z,1000.3
2018-01-10T01:41:34.533Z,1000.3
2018-01-10T01:42:35.885Z,1000.3
2018-01-10T01:43:37.252Z,1000.3
2018-01-10T01:44:38.623Z,1000.2
2018-01-10T01:45:39.982Z,1000.2
2018-01-10T01:46:41.340Z,1000.2
2018-01-10T01:47:42.699Z,1000.2
2018-01-10T01:48:44.783Z,1000.2
2018-01-10T01:49:46.142Z,1000.2
2018-01-10T01:50:47.496Z,1000.3
2018-01-10T01:51:48.853Z,1000.1
2018-01-10T01:52:50.216Z,1000.1
2018-01-10T01:53:51.573Z,1000.1
2018-01-10T01:54:52.932Z,1000.1
2018-01-10T01:55:54.293Z,1000.1
2018-01-10T01:56:55.650Z,1000.0
2018-01-10T01:57:57.013Z,1000.0
2018-01-10T01:58:58.398Z,999.9
2018-01-10T01:59:59.752Z,1000.0
2018-01-10T02:01:01.112Z,1000.0
2018-01-10T02:02:02.476Z,1000.0
2018-01-10T02:03:03.848Z,1000.0
2018-01-10T02:04:05.219Z,1000.0
2018-01-10T02:05:06.576Z,1000.0
2018-01-10T02:06:07.932Z,1000.0
2018-01-10T02:07:09.291Z,999.9
2018-01-10T02:08:10.665Z,999.9
2018-01-10T02:09:12.026Z,999.9
2018-01-10T02:10:14.013Z,999.9
2018-01-10T02:11:15.368Z,999.9
2018-01-10T02:12:16.726Z,999.8
2018-01-10T02:13:18.092Z,999.8
2018-01-10T02:14:19.452Z,999.8
2018-01-10T02:15:20.801Z,999.8
2018-01-10T02:16:22.170Z,999.8
2018-01-10T02:17:23.522Z,999.8
2018-01-10T02:18:24.881Z,999.8
2018-01-10T02:19:26.239Z,999.8
2018-01-10T02:20:27.595Z,999.9
2018-01-10T02:21:28.956Z,999.9
2018-01-10T02:22:30.329Z,999.9
2018-01-10T02:23:31.696Z,999.8
2018-01-10T02:24:33.054Z,999.8
2018-01-10T02:25:34.413Z,999.9
2018-01-10T02:26:35.764Z,999.9
2018-01-10T02:27:37.137Z,999.9
2018-01-10T02:28:38.498Z,999.9
2018-01-10T02:29:39.864Z,999.9
2018-01-10T02:30:41.225Z,999.9
2018-01-10T02:31:42.591Z,999.9
2018-01-10T02:32:43.958Z,1000.0
2018-01-10T02:33:45.321Z,999.9
2018-01-10T02:34:46.677Z,1000.0
2018-01-10T02:35:48.030Z,999.9
2018-01-10T02:36:49.397Z,999.9
2018-01-10T02:37:50.761Z,999.9
2018-01-10T02:38:52.114Z,999.9
2018-01-10T02:39:53.471Z,999.9
2018-01-10T02:40:54.825Z,1000.0
2018-01-10T02:41:56.180Z,1000.0
2018-01-10T02:42:57.549Z,1000.0
2018-01-10T02:43:58.910Z,1000.0
2018-01-10T02:45:00.266Z,999.9
2018-01-10T02:46:01.626Z,999.9
2018-01-10T02:47:02.986Z,999.9
2018-01-10T02:48:04.341Z,999.9
2018-01-10T02:49:05.702Z,999.9
2018-01-10T02:50:07.072Z,999.9
2018-01-10T02:51:08.429Z,999.9
2018-01-10T02:52:09.785Z,999.9
2018-01-10T02:53:11.146Z,1000.0
2018-01-10T02:54:12.499Z,999.9
2018-01-10T02:55:14.688Z,999.9
2018-01-10T02:56:16.047Z,999.9
2018-01-10T02:57:17.401Z,999.9
2018-01-10T02:58:18.793Z,999.9
2018-01-10T02:59:20.156Z,1000.0
2018-01-10T03:00:21.517Z,999.9
2018-01-10T03:01:22.875Z,1000.0
2018-01-10T03:02:24.231Z,999.9
2018-01-10T03:03:25.585Z,999.9
2018-01-10T03:04:26.951Z,1000.0
2018-01-10T03:05:28.312Z,999.9
2018-01-10T03:06:29.667Z,1000.0
2018-01-10T03:07:31.051Z,1000.0
2018-01-10T03:08:32.409Z,1000.0
2018-01-10T03:09:33.769Z,1000.0
2018-01-10T03:10:35.127Z,1000.0
2018-01-10T03:11:36.491Z,1000.0
2018-01-10T03:12:37.847Z,1000.0
2018-01-10T03:13:39.213Z,1000.0
2018-01-10T03:14:40.574Z,1000.0
2018-01-10T03:15:41.934Z,1000.0
2018-01-10T03:16:43.288Z,999.9
2018-01-10T03:17:44.650Z,1000.0
2018-01-10T03:18:46.034Z,999.9
2018-01-10T03:19:47.390Z,999.9
2018-01-10T03:20:48.753Z,999.9
2018-01-10T03:21:50.116Z,1000.0
2018-01-10T03:22:51.471Z,999.9
2018-01-10T03:23:52.828Z,999.9
2018-01-10T03:24:54.189Z,999.9
2018-01-10T03:25:55.543Z,999.9
2018-01-10T03:26:56.901Z,999.9
2018-01-10T03:27:58.264Z,999.9
2018-01-10T03:28:59.617Z,999.9
2018-01-10T03:30:00.992Z,999.9
2018-01-10T03:31:02.350Z,999.9
2018-01-10T03:32:03.711Z,999.9
2018-01-10T03:33:05.059Z,999.9
2018-01-10T03:34:06.421Z,999.9
2018-01-10T03:35:07.786Z,999.9
2018-01-10T03:36:09.146Z,999.9
2018-01-10T03:37:10.504Z,999.9
2018-01-10T03:38:11.861Z,999.9
2018-01-10T03:39:13.217Z,999.9
2018-01-10T03:40:14.576Z,999.8
2018-01-10T03:41:15.940Z,999.8
2018-01-10T03:42:17.303Z,999.8
2018-01-10T03:43:18.666Z,999.8
2018-01-10T03:44:20.025Z,999.8
2018-01-10T03:45:21.378Z,999.8
2018-01-10T03:46:22.731Z,999.9
2018-01-10T03:47:24.097Z,999.9
2018-01-10T03:48:25.448Z,999.9
2018-01-10T03:49:26.813Z,999.9
2018-01-10T03:50:28.172Z,999.9
2018-01-10T03:51:29.523Z,999.9
2018-01-10T03:52:30.885Z,999.9
2018-01-10T03:53:32.240Z,999.9
2018-01-10T03:54:33.597Z,999.8
2018-01-10T03:55:34.954Z,999.8
2018-01-10T03:56:36.311Z,999.8
2018-01-10T03:57:37.674Z,999.8
2018-01-10T03:58:39.042Z,999.8
2018-01-10T03:59:40.390Z,999.9
2018-01-10T04:00:41.744Z,999.8
2018-01-10T04:01:43.101Z,999.8
2018-01-10T04:02:44.461Z,999.8
2018-01-10T04:03:45.820Z,999.8
2018-01-10T04:04:47.207Z,999.8
2018-01-10T04:05:48.573Z,999.8
2018-01-10T04:06:49.923Z,999.8
2018-01-10T04:07:51.284Z,999.8
2018-01-10T04:08:52.660Z,999.9
2018-01-10T04:09:54.020Z,999.9
2018-01-10T04:10:55.385Z,999.9
2018-01-10T04:11:56.741Z,999.9
2018-01-10T04:12:58.096Z,999.9
2018-01-10T04:13:59.454Z,999.8
2018-01-10T04:15:00.805Z,999.9
2018-01-10T04:16:02.159Z,999.9
2018-01-10T04:17:03.531Z,999.9
2018-01-10T04:18:04.890Z,999.8
2018-01-10T04:19:06.244Z,999.8
2018-01-10T04:20:07.607Z,999.8
2018-01-10T04:21:08.972Z,999.9
2018-01-10T04:22:10.328Z,999.8
2018-01-10T04:23:11.687Z,999.8
2018-01-10T04:24:13.049Z,999.8
2018-01-10T04:25:14.400Z,999.9
2018-01-10T04:26:15.766Z,999.9
2018-01-10T04:27:17.126Z,999.9
2018-01-10T04:28:18.526Z,999.8
2018-01-10T04:29:19.893Z,999.9
2018-01-10T04:30:21.288Z,999.8
2018-01-10T04:31:22.642Z,999.8
2018-01-10T04:32:24.005Z,999.8
2018-01-10T04:33:25.355Z,999.9
2018-01-10T04:34:26.717Z,999.9
2018-01-10T04:35:28.097Z,999.9
2018-01-10T04:36:29.452Z,999.8
2018-01-10T04:37:30.805Z,999.9
2018-01-10T04:38:32.173Z,999.9
2018-01-10T04:39:33.527Z,999.8
2018-01-10T04:40:35.443Z,999.9
2018-01-10T04:41:36.798Z,999.8
2018-01-10T04:42:38.156Z,999.8
2018-01-10T04:43:39.517Z,999.8
2018-01-10T04:44:40.870Z,999.9
2018-01-10T04:45:42.267Z,999.8
2018-01-10T04:46:43.626Z,999.9
2018-01-10T04:47:44.984Z,999.9
2018-01-10T04:48:46.345Z,999.9
2018-01-10T04:49:47.704Z,999.9
2018-01-10T04:50:49.061Z,999.9
2018-01-10T04:51:50.423Z,999.9
2018-01-10T04:52:51.784Z,999.8
2018-01-10T04:53:53.147Z,999.9
2018-01-10T04:54:54.500Z,999.8
2018-01-10T04:55:55.860Z,999.9
2018-01-10T04:56:57.212Z,999.9
2018-01-10T04:57:58.570Z,999.8
2018-01-10T04:58:59.929Z,999.8
2018-01-10T05:00:01.282Z,999.8
2018-01-10T05:01:02.643Z,999.9
2018-01-10T05:02:04.005Z,999.9
2018-01-10T05:03:05.370Z,999.9
2018-01-10T05:04:06.728Z,999.9
2018-01-10T05:05:08.086Z,999.9
2018-01-10T05:06:09.442Z,999.9
2018-01-10T05:07:10.799Z,999.9
2018-01-10T05:08:12.164Z,999.9
2018-01-10T05:09:13.530Z,999.9
2018-01-10T05:10:14.888Z,999.9
2018-01-10T05:11:16.238Z,999.9
2018-01-10T05:12:17.600Z,1000.0
2018-01-10T05:13:18.958Z,1000.0
2018-01-10T05:14:20.339Z,999.9
2018-01-10T05:15:21.697Z,999.9
2018-01-10T05:16:23.056Z,1000.0
2018-01-10T05:17:24.419Z,1000.0
2018-01-10T05:18:25.773Z,1000.0
2018-01-10T05:19:27.133Z,1000.0
2018-01-10T05:20:28.492Z,1000.0
2018-01-10T05:21:29.855Z,1000.0
2018-01-10T05:22:31.215Z,1000.0
2018-01-10T05:23:32.576Z,1000.0
2018-01-10T05:24:33.939Z,1000.0
2018-01-10T05:25:35.301Z,1000.0
2018-01-10T05:26:36.651Z,999.9
2018-01-10T05:27:38.011Z,999.9
2018-01-10T05:28:39.374Z,1000.0
2018-01-10T05:29:40.731Z,999.9
2018-01-10T05:30:42.093Z,999.9
2018-01-10T05:31:43.450Z,999.9
2018-01-10T05:32:44.805Z,1000.0
2018-01-10T05:33:46.176Z,1000.0
2018-01-10T05:34:47.532Z,1000.0
2018-01-10T05:35:48.892Z,1000.0
2018-01-10T05:36:50.255Z,1000.0
2018-01-10T05:37:51.625Z,999.9
2018-01-10T05:38:52.989Z,999.9
2018-01-10T05:39:54.351Z,999.9
2018-01-10T05:40:55.722Z,999.9
2018-01-10T05:41:57.108Z,999.9
2018-01-10T05:42:58.448Z,999.8
2018-01-10T05:43:59.804Z,999.9
2018-01-10T05:45:01.160Z,999.8
2018-01-10T05:46:02.527Z,999.8
2018-01-10T05:47:03.873Z,999.8
2018-01-10T05:48:07.767Z,999.9
2018-01-10T05:49:09.129Z,999.9
2018-01-10T05:50:10.522Z,999.8
2018-01-10T05:51:11.877Z,999.9
2018-01-10T05:52:13.239Z,999.9
2018-01-10T05:53:14.609Z,999.8
2018-01-10T05:54:15.976Z,999.9
2018-01-10T05:55:17.338Z,999.9
2018-01-10T05:56:18.689Z,999.9
2018-01-10T05:57:20.049Z,999.8
2018-01-10T05:58:21.404Z,999.9
2018-01-10T05:59:22.769Z,999.9
2018-01-10T06:00:24.124Z,999.9
2018-01-10T06:01:25.476Z,999.8
2018-01-10T06:02:26.839Z,999.8
2018-01-10T06:03:28.193Z,999.9
2018-01-10T06:04:29.554Z,999.9
2018-01-10T06:05:30.915Z,999.9
2018-01-10T06:06:32.278Z,999.9
2018-01-10T06:07:33.632Z,999.9
2018-01-10T06:08:34.994Z,999.8
2018-01-10T06:09:36.359Z,999.9
2018-01-10T06:10:37.718Z,999.9
2018-01-10T06:11:39.078Z,999.9
2018-01-10T06:12:40.441Z,999.9
2018-01-10T06:13:41.800Z,1000.0
2018-01-10T06:14:43.162Z,999.9
2018-01-10T06:15:44.513Z,999.9
2018-01-10T06:16:45.867Z,999.9
2018-01-10T06:17:47.232Z,999.9
2018-01-10T06:18:48.590Z,999.9
2018-01-10T06:19:49.961Z,999.9
2018-01-10T06:20:51.329Z,999.9
2018-01-10T06:21:52.689Z,999.9
2018-01-10T06:22:54.050Z,999.9
2018-01-10T06:23:55.409Z,999.9
2018-01-10T06:24:56.769Z,999.9
2018-01-10T06:25:58.135Z,999.9
2018-01-10T06:26:59.490Z,999.9
2018-01-10T06:28:00.852Z,999.9
2018-01-10T06:29:02.203Z,999.9
2018-01-10T06:30:03.568Z,999.9
2018-01-10T06:31:04.918Z,999.9
2018-01-10T06:32:06.279Z,999.8
2018-01-10T06:33:07.638Z,999.8
2018-01-10T06:34:08.993Z,999.8
2018-01-10T06:35:10.359Z,999.9
2018-01-10T06:36:11.710Z,999.9
2018-01-10T06:37:13.062Z,999.8
2018-01-10T06:38:14.450Z,999.9
2018-01-10T06:39:15.777Z,999.8
2018-01-10T06:40:17.153Z,999.8
2018-01-10T06:41:18.518Z,999.9
2018-01-10T06:42:19.878Z,999.9
2018-01-10T06:43:21.232Z,999.8
2018-01-10T06:44:22.592Z,999.8
2018-01-10T06:45:23.998Z,999.8
2018-01-10T06:46:25.379Z,999.8
2018-01-10T06:47:26.730Z,999.8
2018-01-10T06:48:28.091Z,999.8
2018-01-10T06:49:29.455Z,999.8
2018-01-10T06:50:30.807Z,999.8
2018-01-10T06:51:32.187Z,999.8
2018-01-10T06:52:33.526Z,999.8
2018-01-10T06:53:34.888Z,999.8
2018-01-10T06:54:36.243Z,999.8
2018-01-10T06:55:37.608Z,999.8
2018-01-10T06:56:38.968Z,999.8
2018-01-10T06:57:40.339Z,999.8
2018-01-10T06:58:41.702Z,999.8
2018-01-10T06:59:43.067Z,999.9
2018-01-10T07:00:44.420Z,999.9
2018-01-10T07:01:45.793Z,999.9
2018-01-10T07:02:47.150Z,999.9
2018-01-10T07:03:48.519Z,999.9
2018-01-10T07:04:49.866Z,999.9
2018-01-10T07:05:51.225Z,999.9
2018-01-10T07:06:52.585Z,999.9
2018-01-10T07:07:53.940Z,999.9
2018-01-10T07:08:56.287Z,999.9
2018-01-10T07:09:57.645Z,999.9
2018-01-10T07:10:59.003Z,999.9
2018-01-10T07:12:00.363Z,999.8
2018-01-10T07:13:01.731Z,999.9
2018-01-10T07:14:03.079Z,1000.0
2018-01-10T07:15:04.493Z,999.9
2018-01-10T07:16:05.843Z,1000.0
2018-01-10T07:17:07.210Z,1000.0
2018-01-10T07:18:08.567Z,1000.0
2018-01-10T07:19:09.922Z,1000.0
2018-01-10T07:20:11.291Z,1000.0
2018-01-10T07:21:12.853Z,1000.0
2018-01-10T07:22:14.219Z,1000.1
2018-01-10T07:23:15.585Z,1000.0
2018-01-10T07:24:16.943Z,1000.0
2018-01-10T07:25:18.306Z,1000.1
2018-01-10T07:26:19.666Z,1000.1
2018-01-10T07:27:21.019Z,1000.0
2018-01-10T07:28:22.383Z,1000.1
2018-01-10T07:29:23.746Z,1000.0
2018-01-10T07:30:25.116Z,1000.0
2018-01-10T07:31:26.505Z,1000.0
2018-01-10T07:32:27.871Z,1000.0
2018-01-10T07:33:34.318Z,1000.0
2018-01-10T07:34:35.686Z,1000.0
2018-01-10T07:35:37.051Z,1000.0
2018-01-10T07:36:38.413Z,1000.0
2018-01-10T07:37:39.781Z,1000.0
2018-01-10T07:38:41.166Z,1000.0
2018-01-10T07:39:42.528Z,999.9
2018-01-10T07:40:43.900Z,1000.0
2018-01-10T07:41:45.247Z,1000.0
2018-01-10T07:42:46.619Z,1000.0
2018-01-10T07:43:47.974Z,1000.0
2018-01-10T07:44:49.343Z,1000.0
2018-01-10T07:45:50.724Z,1000.0
2018-01-10T07:46:52.107Z,1000.0
2018-01-10T07:47:53.470Z,999.9
2018-01-10T07:48:55.065Z,1000.0
2018-01-10T07:49:56.426Z,1000.0
2018-01-10T07:50:57.791Z,1000.0
2018-01-10T07:51:59.148Z,999.9
2018-01-10T07:53:00.536Z,1000.0
2018-01-10T07:54:01.900Z,1000.0
2018-01-10T07:55:03.273Z,1000.0
2018-01-10T07:56:04.637Z,1000.0
2018-01-10T07:57:06.004Z,1000.0
2018-01-10T07:58:07.395Z,1000.0
2018-01-10T07:59:08.758Z,1000.0
2018-01-10T08:00:10.154Z,1000.0
2018-01-10T08:01:11.516Z,1000.0
2018-01-10T08:02:12.889Z,1000.0
2018-01-10T08:03:14.250Z,1000.0
2018-01-10T08:04:15.615Z,1000.0
2018-01-10T08:05:16.986Z,1000.0
2018-01-10T08:06:18.345Z,1000.0
2018-01-10T08:07:19.718Z,1000.0
2018-01-10T08:08:21.088Z,1000.0
2018-01-10T08:09:22.453Z,1000.0
2018-01-10T08:10:23.808Z,1000.1
2018-01-10T08:11:25.173Z,1000.1
2018-01-10T08:12:26.551Z,1000.0
2018-01-10T08:13:27.945Z,1000.0
2018-01-10T08:14:29.307Z,1000.0
2018-01-10T08:15:30.678Z,1000.0
2018-01-10T08:16:32.050Z,999.9
2018-01-10T08:17:33.422Z,1000.0
2018-01-10T08:18:34.831Z,1000.0
2018-01-10T08:19:36.207Z,1000.0
2018-01-10T08:20:37.569Z,1000.0
2018-01-10T08:21:38.939Z,1000.0
2018-01-10T08:22:40.296Z,1000.0
2018-01-10T08:23:41.658Z,1000.0
2018-01-10T08:24:43.048Z,1000.0
2018-01-10T08:25:46.315Z,1000.0
2018-01-10T08:26:47.673Z,1000.0
2018-01-10T08:27:49.038Z,1000.0
2018-01-10T08:28:50.399Z,1000.0
2018-01-10T08:29:51.778Z,1000.0
2018-01-10T08:30:53.146Z,999.9
2018-01-10T08:31:54.518Z,1000.0
2018-01-10T08:32:55.880Z,1000.0
2018-01-10T08:33:57.252Z,1000.0
2018-01-10T08:34:58.617Z,1000.0
2018-01-10T08:35:59.982Z,1000.0
2018-01-10T08:37:01.355Z,1000.1
2018-01-10T08:38:02.720Z,1000.0
2018-01-10T08:39:04.096Z,1000.0
2018-01-10T08:40:05.456Z,1000.0
2018-01-10T08:41:06.822Z,1000.0
2018-01-10T08:42:08.192Z,1000.0
2018-01-10T08:43:09.559Z,999.9
2018-01-10T08:44:10.928Z,1000.0
2018-01-10T08:45:12.299Z,1000.0
2018-01-10T08:46:14.522Z,1000.0
2018-01-10T08:47:15.881Z,1000.0
2018-01-10T08:48:17.247Z,1000.0
2018-01-10T08:49:18.613Z,1000.0
2018-01-10T08:50:19.982Z,999.9
2018-01-10T08:51:21.351Z,999.9
2018-01-10T08:52:22.711Z,999.9
2018-01-10T08:53:24.076Z,999.9
2018-01-10T08:54:25.440Z,999.9
2018-01-10T08:55:26.815Z,999.9
2018-01-10T08:56:28.179Z,999.9
2018-01-10T08:57:30.798Z,999.9
2018-01-10T08:58:37.888Z,999.9
2018-01-10T08:59:39.259Z,999.9
2018-01-10T09:00:40.621Z,999.9
2018-01-10T09:01:41.982Z,999.9
2018-01-10T09:02:43.351Z,999.9
2018-01-10T09:03:44.746Z,999.9
2018-01-10T09:04:46.110Z,999.8
2018-01-10T09:05:47.568Z,999.8
2018-01-10T09:06:48.921Z,999.8
2018-01-10T09:07:50.303Z,999.9
2018-01-10T09:08:51.676Z,999.9
2018-01-10T09:09:53.039Z,999.9
2018-01-10T09:10:54.417Z,999.8
2018-01-10T09:11:55.781Z,999.9
2018-01-10T09:12:57.155Z,999.9
2018-01-10T09:13:58.523Z,999.9
2018-01-10T09:14:59.893Z,999.8
2018-01-10T09:16:01.264Z,999.9
2018-01-10T09:17:02.632Z,999.8
2018-01-10T09:18:04.006Z,999.8
2018-01-10T09:19:05.380Z,999.9
2018-01-10T09:20:06.747Z,999.8
2018-01-10T09:21:08.130Z,999.8
2018-01-10T09:22:09.496Z,999.8
2018-01-10T09:23:10.861Z,999.8
2018-01-10T09:24:12.233Z,999.8
2018-01-10T09:25:13.609Z,999.8
2018-01-10T09:26:14.972Z,999.8
2018-01-10T09:27:16.351Z,999.8
2018-01-10T09:28:17.726Z,999.8
2018-01-10T09:29:19.089Z,999.8
2018-01-10T09:30:20.453Z,999.8
2018-01-10T09:31:21.824Z,999.7
2018-01-10T09:32:23.199Z,999.8
2018-01-10T09:33:24.572Z,999.8
2018-01-10T09:34:25.943Z,999.8
2018-01-10T09:35:27.310Z,999.8
2018-01-10T09:36:28.673Z,999.8
2018-01-10T09:37:30.040Z,999.8
2018-01-10T09:38:31.490Z,999.8
2018-01-10T09:39:32.869Z,999.8
2018-01-10T09:40:34.235Z,999.9
2018-01-10T09:41:35.612Z,999.9
2018-01-10T09:42:36.982Z,999.9
2018-01-10T09:43:38.342Z,999.9
2018-01-10T09:44:39.716Z,999.8
2018-01-10T09:45:41.116Z,999.8
2018-01-10T09:46:42.476Z,999.8
2018-01-10T09:47:43.869Z,999.8
2018-01-10T09:48:45.246Z,999.8
2018-01-10T09:49:46.649Z,999.8
2018-01-10T09:50:48.022Z,999.7
2018-01-10T09:51:49.392Z,999.7
2018-01-10T09:52:50.762Z,999.8
2018-01-10T09:53:52.144Z,999.8
2018-01-10T09:54:53.516Z,999.8
2018-01-10T09:55:54.901Z,999.7
2018-01-10T09:56:56.272Z,999.7
2018-01-10T09:57:57.640Z,999.7
2018-01-10T09:58:59.018Z,999.8
2018-01-10T10:00:00.388Z,999.8
2018-01-10T10:01:01.757Z,999.8
2018-01-10T10:02:03.165Z,999.9
2018-01-10T10:03:04.533Z,999.8
2018-01-10T10:04:05.903Z,999.8
2018-01-10T10:05:07.276Z,999.8
2018-01-10T10:06:08.654Z,999.7
2018-01-10T10:07:10.028Z,999.7
2018-01-10T10:08:11.417Z,999.8
2018-01-10T10:09:12.785Z,999.7
2018-01-10T10:10:14.165Z,999.7
2018-01-10T10:11:15.539Z,999.7
2018-01-10T10:12:16.959Z,999.7
2018-01-10T10:13:18.374Z,999.7
2018-01-10T10:14:19.759Z,999.7
2018-01-10T10:15:21.132Z,999.7
2018-01-10T10:16:22.544Z,999.7
2018-01-10T10:17:23.922Z,999.7
2018-01-10T10:18:25.301Z,999.7
2018-01-10T10:19:26.667Z,999.7
2018-01-10T10:20:28.101Z,999.6
2018-01-10T10:21:29.489Z,999.6
2018-01-10T10:22:30.857Z,999.7
2018-01-10T10:23:32.231Z,999.6
2018-01-10T10:24:33.607Z,999.7
2018-01-10T10:25:34.982Z,999.6
2018-01-10T10:26:36.397Z,999.6
2018-01-10T10:27:37.772Z,999.6
2018-01-10T10:28:39.146Z,999.6
2018-01-10T10:29:40.519Z,999.6
2018-01-10T10:30:41.904Z,999.6
2018-01-10T10:31:43.276Z,999.6
2018-01-10T10:32:44.664Z,999.5
2018-01-10T10:33:46.034Z,999.6
2018-01-10T10:34:47.401Z,999.6
2018-01-10T10:35:48.865Z,999.6
2018-01-10T10:36:50.291Z,999.5
2018-01-10T10:37:51.689Z,999.6
2018-01-10T10:38:53.061Z,999.5
2018-01-10T10:39:54.435Z,999.5
2018-01-10T10:40:55.811Z,999.5
2018-01-10T10:41:57.182Z,999.4
2018-01-10T10:42:58.563Z,999.4
2018-01-10T10:43:59.936Z,999.4
2018-01-10T10:45:01.320Z,999.4
2018-01-10T10:46:02.703Z,999.4
2018-01-10T10:47:04.117Z,999.4
2018-01-10T10:48:05.486Z,999.4
2018-01-10T10:49:06.863Z,999.4
2018-01-10T10:50:08.231Z,999.4
2018-01-10T10:51:09.617Z,999.4
2018-01-10T10:52:10.991Z,999.4
2018-01-10T10:53:12.370Z,999.3
2018-01-10T10:54:13.733Z,999.3
2018-01-10T10:55:15.124Z,999.2
2018-01-10T10:56:16.504Z,999.3
2018-01-10T10:57:17.914Z,999.2
2018-01-10T10:58:19.306Z,999.2
2018-01-10T10:59:24.893Z,999.2
2018-01-10T11:00:26.383Z,999.2
2018-01-10T11:01:27.763Z,999.2
2018-01-10T11:02:29.150Z,999.2
2018-01-10T11:03:30.516Z,999.1
2018-01-10T11:04:31.903Z,999.1
2018-01-10T11:05:33.290Z,999.1
2018-01-10T11:06:34.697Z,999.1
2018-01-10T11:07:36.062Z,999.1
2018-01-10T11:08:37.434Z,999.2
2018-01-10T11:09:38.827Z,999.1
2018-01-10T11:10:40.194Z,999.2
2018-01-10T11:11:41.572Z,999.2
2018-01-10T11:12:43.024Z,999.1
2018-01-10T11:13:44.392Z,999.1
2018-01-10T11:14:45.789Z,999.1
2018-01-10T11:15:47.152Z,999.1
2018-01-10T11:16:48.530Z,999.1
2018-01-10T11:17:49.929Z,999.1
2018-01-10T11:18:51.294Z,999.1
2018-01-10T11:19:52.667Z,999.0
2018-01-10T11:20:54.048Z,999.0
2018-01-10T11:21:55.410Z,998.9
2018-01-10T11:22:56.799Z,999.0
2018-01-10T11:23:58.161Z,998.9
2018-01-10T11:24:59.560Z,999.0
2018-01-10T11:26:00.927Z,998.9
2018-01-10T11:27:02.311Z,998.9
2018-01-10T11:28:03.685Z,998.9
2018-01-10T11:29:05.084Z,998.9
2018-01-10T11:30:06.465Z,998.9
2018-01-10T11:31:07.844Z,998.9
2018-01-10T11:32:09.224Z,998.9
2018-01-10T11:33:10.633Z,998.8
2018-01-10T11:34:11.982Z,998.8
2018-01-10T11:35:13.372Z,998.7
2018-01-10T11:36:14.748Z,998.7
2018-01-10T11:37:16.114Z,998.7
2018-01-10T11:38:17.517Z,998.7
2018-01-10T11:39:19.043Z,998.7
2018-01-10T11:40:20.466Z,998.7
2018-01-10T11:41:21.829Z,998.6
2018-01-10T11:42:23.209Z,998.6
2018-01-10T11:43:24.582Z,998.6
2018-01-10T11:44:25.952Z,998.6
2018-01-10T11:45:27.357Z,998.6
2018-01-10T11:46:28.726Z,998.6
2018-01-10T11:47:30.098Z,998.6
2018-01-10T11:48:31.496Z,998.6
2018-01-10T11:49:32.873Z,998.6
2018-01-10T11:50:34.246Z,998.6
2018-01-10T11:51:35.619Z,998.6
2018-01-10T11:52:36.996Z,998.6
2018-01-10T11:53:38.410Z,998.5
2018-01-10T11:54:39.734Z,998.5
2018-01-10T11:55:41.108Z,998.5
2018-01-10T11:56:42.491Z,998.5
2018-01-10T11:57:43.875Z,998.5
2018-01-10T11:58:45.251Z,998.5
2018-01-10T11:59:46.628Z,998.5
2018-01-10T12:00:47.996Z,998.5
2018-01-10T12:01:49.374Z,998.4
2018-01-10T12:02:50.753Z,998.5
2018-01-10T12:03:52.123Z,998.4
2018-01-10T12:04:53.499Z,998.4
2018-01-10T12:05:54.873Z,998.4
2018-01-10T12:06:56.248Z,998.4
2018-01-10T12:07:57.623Z,998.4
2018-01-10T12:08:59.008Z,998.3
2018-01-10T12:10:00.384Z,998.3
2018-01-10T12:11:01.755Z,998.3
2018-01-10T12:12:03.153Z,998.3
2018-01-10T12:13:04.520Z,998.3
2018-01-10T12:14:05.895Z,998.3
2018-01-10T12:15:07.284Z,998.3
2018-01-10T12:16:08.683Z,998.3
2018-01-10T12:17:10.084Z,998.3
2018-01-10T12:18:11.461Z,998.3
2018-01-10T12:19:12.821Z,998.3
2018-01-10T12:20:14.204Z,998.3
2018-01-10T12:21:15.580Z,998.2
2018-01-10T12:22:16.952Z,998.2
2018-01-10T12:23:18.321Z,998.2
2018-01-10T12:24:19.707Z,998.2
2018-01-10T12:25:21.075Z,998.2
2018-01-10T12:26:22.462Z,998.2
2018-01-10T12:27:23.835Z,998.2
2018-01-10T12:28:25.219Z,998.2
2018-01-10T12:29:26.589Z,998.2
2018-01-10T12:30:27.969Z,998.2
2018-01-10T12:31:29.408Z,998.1
2018-01-10T12:32:30.788Z,998.1
2018-01-10T12:33:32.161Z,998.1
2018-01-10T12:34:33.540Z,998.1
2018-01-10T12:35:34.932Z,998.2
2018-01-10T12:36:36.316Z,998.1
2018-01-10T12:37:37.710Z,998.1
2018-01-10T12:38:39.105Z,998.1
2018-01-10T12:39:40.504Z,998.1
2018-01-10T12:40:41.876Z,998.0
2018-01-10T12:41:43.253Z,998.0
2018-01-10T12:42:44.628Z,998.0
2018-01-10T12:43:46.005Z,998.1
2018-01-10T12:44:47.390Z,998.0
2018-01-10T12:45:48.765Z,998.0
2018-01-10T12:46:50.164Z,998.0
2018-01-10T12:47:51.545Z,998.0
2018-01-10T12:48:52.930Z,998.0
2018-01-10T12:49:54.312Z,998.0
2018-01-10T12:50:55.691Z,998.0
2018-01-10T12:51:57.095Z,998.0
2018-01-10T12:52:58.455Z,998.0
2018-01-10T12:53:59.829Z,998.0
2018-01-10T12:55:01.205Z,998.1
2018-01-10T12:56:02.592Z,998.1
2018-01-10T12:57:03.968Z,998.0
2018-01-10T12:58:05.343Z,998.0
2018-01-10T12:59:06.718Z,998.0
2018-01-10T13:00:08.120Z,997.9
2018-01-10T13:01:09.494Z,998.0
2018-01-10T13:02:10.874Z,998.0